Airport ICAO


11:05 UTC

32°C


An affordable passengers' Moving Map for your aircraft. Made for the iPad and the iPhone
More information here

LFMC Le Cannet


Le Luc FRANCE   


METAR LFMC 191100Z AUTO VRB02KT 9999 ////// 32/16 Q1017 0h05min





NOTAMS

OPEN